sensor_id;sensor_type;location;lat;lon;timestamp;temperature;humidity
67275;DHT22;55463;52.324;5.122;2023-04-30T00:01:45;8.52;90.87
67275;DHT22;55463;52.324;5.122;2023-04-30T00:04:10;8.49;89.81
67275;DHT22;55463;52.324;5.122;2023-04-30T00:06:36;8.42;89.19
67275;DHT22;55463;52.324;5.122;2023-04-30T00:09:01;8.41;89.47
67275;DHT22;55463;52.324;5.122;2023-04-30T00:11:27;8.38;90.31
67275;DHT22;55463;52.324;5.122;2023-04-30T00:13:53;8.35;90.41
67275;DHT22;55463;52.324;5.122;2023-04-30T00:16:18;8.28;90.61
67275;DHT22;55463;52.324;5.122;2023-04-30T00:18:44;8.25;89.89
67275;DHT22;55463;52.324;5.122;2023-04-30T00:21:09;8.21;88.78
67275;DHT22;55463;52.324;5.122;2023-04-30T00:23:35;8.18;88.99
67275;DHT22;55463;52.324;5.122;2023-04-30T00:26:00;8.11;87.88
67275;DHT22;55463;52.324;5.122;2023-04-30T00:28:26;8.07;87.88
67275;DHT22;55463;52.324;5.122;2023-04-30T00:30:52;7.98;87.95
67275;DHT22;55463;52.324;5.122;2023-04-30T00:33:17;7.95;89.28
67275;DHT22;55463;52.324;5.122;2023-04-30T00:35:42;7.93;88.14
67275;DHT22;55463;52.324;5.122;2023-04-30T00:38:08;7.87;91.04
67275;DHT22;55463;52.324;5.122;2023-04-30T00:40:37;7.86;90.19
67275;DHT22;55463;52.324;5.122;2023-04-30T00:43:02;7.84;90.58
67275;DHT22;55463;52.324;5.122;2023-04-30T00:45:28;7.87;91.65
67275;DHT22;55463;52.324;5.122;2023-04-30T00:47:53;7.87;92.19
67275;DHT22;55463;52.324;5.122;2023-04-30T00:50:18;7.86;91.77
67275;DHT22;55463;52.324;5.122;2023-04-30T00:52:44;7.86;90.37
67275;DHT22;55463;52.324;5.122;2023-04-30T00:55:10;7.83;89.92
67275;DHT22;55463;52.324;5.122;2023-04-30T00:57:37;7.80;92.42
67275;DHT22;55463;52.324;5.122;2023-04-30T01:00:03;7.80;90.99
67275;DHT22;55463;52.324;5.122;2023-04-30T01:02:29;7.77;90.72
67275;DHT22;55463;52.324;5.122;2023-04-30T01:04:55;7.76;90.24
67275;DHT22;55463;52.324;5.122;2023-04-30T01:07:21;7.72;89.80
67275;DHT22;55463;52.324;5.122;2023-04-30T01:09:47;7.65;91.00
67275;DHT22;55463;52.324;5.122;2023-04-30T01:12:15;7.66;92.49
67275;DHT22;55463;52.324;5.122;2023-04-30T01:17:47;7.61;91.45
67275;DHT22;55463;52.324;5.122;2023-04-30T01:20:14;7.58;91.96
67275;DHT22;55463;52.324;5.122;2023-04-30T01:22:54;7.59;92.93
67275;DHT22;55463;52.324;5.122;2023-04-30T01:28:08;7.61;92.52
67275;DHT22;55463;52.324;5.122;2023-04-30T01:30:34;7.58;92.33
67275;DHT22;55463;52.324;5.122;2023-04-30T01:33:00;7.54;92.10
67275;DHT22;55463;52.324;5.122;2023-04-30T01:40:52;7.48;92.84
67275;DHT22;55463;52.324;5.122;2023-04-30T01:46:18;7.36;92.13
67275;DHT22;55463;52.324;5.122;2023-04-30T01:48:58;7.32;90.96
67275;DHT22;55463;52.324;5.122;2023-04-30T01:54:05;7.32;92.34
67275;DHT22;55463;52.324;5.122;2023-04-30T01:56:32;7.31;93.76
67275;DHT22;55463;52.324;5.122;2023-04-30T01:59:03;7.30;94.63
67275;DHT22;55463;52.324;5.122;2023-04-30T02:01:30;7.28;93.83
67275;DHT22;55463;52.324;5.122;2023-04-30T02:03:56;7.30;92.83
67275;DHT22;55463;52.324;5.122;2023-04-30T02:06:23;7.24;92.39
67275;DHT22;55463;52.324;5.122;2023-04-30T02:08:57;7.22;92.94
67275;DHT22;55463;52.324;5.122;2023-04-30T02:11:28;7.17;91.24
67275;DHT22;55463;52.324;5.122;2023-04-30T02:13:53;7.17;92.79
67275;DHT22;55463;52.324;5.122;2023-04-30T02:16:18;7.10;91.13
67275;DHT22;55463;52.324;5.122;2023-04-30T02:18:44;7.04;91.20
67275;DHT22;55463;52.324;5.122;2023-04-30T02:21:10;7.04;91.01
67275;DHT22;55463;52.324;5.122;2023-04-30T02:23:36;6.97;90.30
67275;DHT22;55463;52.324;5.122;2023-04-30T02:26:01;6.92;90.71
67275;DHT22;55463;52.324;5.122;2023-04-30T02:28:27;6.93;90.13
67275;DHT22;55463;52.324;5.122;2023-04-30T02:30:52;6.90;89.44
67275;DHT22;55463;52.324;5.122;2023-04-30T02:33:19;6.82;89.29
67275;DHT22;55463;52.324;5.122;2023-04-30T02:35:45;6.77;90.91
67275;DHT22;55463;52.324;5.122;2023-04-30T02:38:11;6.75;90.69
67275;DHT22;55463;52.324;5.122;2023-04-30T02:40:36;6.71;90.77
67275;DHT22;55463;52.324;5.122;2023-04-30T02:43:02;6.71;90.91
67275;DHT22;55463;52.324;5.122;2023-04-30T02:45:27;6.68;91.26
67275;DHT22;55463;52.324;5.122;2023-04-30T02:47:52;6.65;91.31
67275;DHT22;55463;52.324;5.122;2023-04-30T02:50:18;6.65;91.21
67275;DHT22;55463;52.324;5.122;2023-04-30T02:52:44;6.62;91.29
67275;DHT22;55463;52.324;5.122;2023-04-30T02:55:10;6.59;91.77
67275;DHT22;55463;52.324;5.122;2023-04-30T02:57:35;6.53;91.16
67275;DHT22;55463;52.324;5.122;2023-04-30T03:00:01;6.53;93.05
67275;DHT22;55463;52.324;5.122;2023-04-30T03:02:27;6.58;94.02
67275;DHT22;55463;52.324;5.122;2023-04-30T03:04:52;6.55;93.20
67275;DHT22;55463;52.324;5.122;2023-04-30T03:07:17;6.59;93.67
67275;DHT22;55463;52.324;5.122;2023-04-30T03:09:43;6.59;93.33
67275;DHT22;55463;52.324;5.122;2023-04-30T03:12:08;6.58;93.44
67275;DHT22;55463;52.324;5.122;2023-04-30T03:14:33;6.64;95.44
67275;DHT22;55463;52.324;5.122;2023-04-30T03:16:59;6.62;96.07
67275;DHT22;55463;52.324;5.122;2023-04-30T03:19:24;6.62;96.57
67275;DHT22;55463;52.324;5.122;2023-04-30T03:21:50;6.62;94.57
67275;DHT22;55463;52.324;5.122;2023-04-30T03:24:17;6.55;93.79
67275;DHT22;55463;52.324;5.122;2023-04-30T03:26:42;6.46;91.83
67275;DHT22;55463;52.324;5.122;2023-04-30T03:29:08;6.41;91.99
67275;DHT22;55463;52.324;5.122;2023-04-30T03:31:33;6.41;93.78
67275;DHT22;55463;52.324;5.122;2023-04-30T03:33:58;6.38;93.12
67275;DHT22;55463;52.324;5.122;2023-04-30T03:36:23;6.32;92.29
67275;DHT22;55463;52.324;5.122;2023-04-30T03:38:49;6.30;91.95
67275;DHT22;55463;52.324;5.122;2023-04-30T03:41:14;6.27;92.82
67275;DHT22;55463;52.324;5.122;2023-04-30T03:43:40;6.25;93.71
67275;DHT22;55463;52.324;5.122;2023-04-30T03:46:05;6.22;93.09
67275;DHT22;55463;52.324;5.122;2023-04-30T03:48:30;6.20;92.18
67275;DHT22;55463;52.324;5.122;2023-04-30T03:50:56;6.17;91.18
67275;DHT22;55463;52.324;5.122;2023-04-30T03:53:21;6.13;92.41
67275;DHT22;55463;52.324;5.122;2023-04-30T03:55:48;6.14;92.53
67275;DHT22;55463;52.324;5.122;2023-04-30T03:58:13;6.13;93.85
67275;DHT22;55463;52.324;5.122;2023-04-30T04:00:40;6.17;94.82
67275;DHT22;55463;52.324;5.122;2023-04-30T04:03:05;6.18;95.73
67275;DHT22;55463;52.324;5.122;2023-04-30T04:05:31;6.20;96.53
67275;DHT22;55463;52.324;5.122;2023-04-30T04:07:56;6.25;96.45
67275;DHT22;55463;52.324;5.122;2023-04-30T04:10:22;6.25;96.49
67275;DHT22;55463;52.324;5.122;2023-04-30T04:12:47;6.27;94.94
67275;DHT22;55463;52.324;5.122;2023-04-30T04:15:12;6.25;95.50
67275;DHT22;55463;52.324;5.122;2023-04-30T04:17:38;6.22;95.24
67275;DHT22;55463;52.324;5.122;2023-04-30T04:20:04;6.21;94.74
67275;DHT22;55463;52.324;5.122;2023-04-30T04:22:30;6.22;95.81
67275;DHT22;55463;52.324;5.122;2023-04-30T04:24:55;6.25;96.32
67275;DHT22;55463;52.324;5.122;2023-04-30T04:27:21;6.25;95.98
67275;DHT22;55463;52.324;5.122;2023-04-30T04:29:47;6.24;95.26
67275;DHT22;55463;52.324;5.122;2023-04-30T04:32:13;6.21;94.45
67275;DHT22;55463;52.324;5.122;2023-04-30T04:34:38;6.18;94.95
67275;DHT22;55463;52.324;5.122;2023-04-30T04:37:04;6.17;95.07
67275;DHT22;55463;52.324;5.122;2023-04-30T04:39:30;6.17;95.42
67275;DHT22;55463;52.324;5.122;2023-04-30T04:41:55;6.21;96.78
67275;DHT22;55463;52.324;5.122;2023-04-30T04:44:20;6.25;96.28
67275;DHT22;55463;52.324;5.122;2023-04-30T04:46:48;6.27;95.77
67275;DHT22;55463;52.324;5.122;2023-04-30T04:49:13;6.30;96.15
67275;DHT22;55463;52.324;5.122;2023-04-30T04:51:39;6.34;96.27
67275;DHT22;55463;52.324;5.122;2023-04-30T04:54:05;6.38;97.80
67275;DHT22;55463;52.324;5.122;2023-04-30T04:56:30;6.41;96.93
67275;DHT22;55463;52.324;5.122;2023-04-30T04:58:57;6.42;96.68
67275;DHT22;55463;52.324;5.122;2023-04-30T05:01:23;6.44;96.47
67275;DHT22;55463;52.324;5.122;2023-04-30T05:03:48;6.49;98.16
67275;DHT22;55463;52.324;5.122;2023-04-30T05:06:13;6.58;98.43
67275;DHT22;55463;52.324;5.122;2023-04-30T05:08:39;6.62;98.07
67275;DHT22;55463;52.324;5.122;2023-04-30T05:11:04;6.68;97.65
67275;DHT22;55463;52.324;5.122;2023-04-30T05:13:30;6.72;97.56
67275;DHT22;55463;52.324;5.122;2023-04-30T05:15:55;6.80;97.92
67275;DHT22;55463;52.324;5.122;2023-04-30T05:18:21;6.85;97.97
67275;DHT22;55463;52.324;5.122;2023-04-30T05:20:46;6.92;98.15
67275;DHT22;55463;52.324;5.122;2023-04-30T05:23:11;6.94;97.65
67275;DHT22;55463;52.324;5.122;2023-04-30T05:25:37;7.00;97.26
67275;DHT22;55463;52.324;5.122;2023-04-30T05:28:02;7.05;97.36
67275;DHT22;55463;52.324;5.122;2023-04-30T05:30:29;7.10;97.11
67275;DHT22;55463;52.324;5.122;2023-04-30T05:32:54;7.15;97.21
67275;DHT22;55463;52.324;5.122;2023-04-30T05:35:20;7.27;97.76
67275;DHT22;55463;52.324;5.122;2023-04-30T05:37:45;7.28;97.35
67275;DHT22;55463;52.324;5.122;2023-04-30T05:40:12;7.32;97.02
67275;DHT22;55463;52.324;5.122;2023-04-30T05:42:37;7.42;97.75
67275;DHT22;55463;52.324;5.122;2023-04-30T05:45:05;7.44;96.70
67275;DHT22;55463;52.324;5.122;2023-04-30T05:47:31;7.52;96.27
67275;DHT22;55463;52.324;5.122;2023-04-30T05:49:56;7.58;97.17
67275;DHT22;55463;52.324;5.122;2023-04-30T05:52:22;7.63;97.17
67275;DHT22;55463;52.324;5.122;2023-04-30T05:54:47;7.75;97.34
67275;DHT22;55463;52.324;5.122;2023-04-30T05:57:13;7.75;96.62
67275;DHT22;55463;52.324;5.122;2023-04-30T05:59:38;7.82;97.81
67275;DHT22;55463;52.324;5.122;2023-04-30T06:02:03;7.89;97.38
67275;DHT22;55463;52.324;5.122;2023-04-30T06:04:29;7.98;98.05
67275;DHT22;55463;52.324;5.122;2023-04-30T06:06:55;8.07;98.50
67275;DHT22;55463;52.324;5.122;2023-04-30T06:09:21;8.17;97.81
67275;DHT22;55463;52.324;5.122;2023-04-30T06:11:46;8.44;98.46
67275;DHT22;55463;52.324;5.122;2023-04-30T06:14:15;8.76;98.57
67275;DHT22;55463;52.324;5.122;2023-04-30T06:16:41;9.12;97.59
67275;DHT22;55463;52.324;5.122;2023-04-30T06:19:06;9.65;99.11
67275;DHT22;55463;52.324;5.122;2023-04-30T06:21:32;9.98;95.96
67275;DHT22;55463;52.324;5.122;2023-04-30T06:23:57;10.48;95.97
67275;DHT22;55463;52.324;5.122;2023-04-30T06:26:22;10.90;93.08
67275;DHT22;55463;52.324;5.122;2023-04-30T06:28:48;11.25;93.28
67275;DHT22;55463;52.324;5.122;2023-04-30T06:31:13;11.42;90.64
67275;DHT22;55463;52.324;5.122;2023-04-30T06:33:38;11.81;90.45
67275;DHT22;55463;52.324;5.122;2023-04-30T06:36:04;12.08;87.67
67275;DHT22;55463;52.324;5.122;2023-04-30T06:38:30;12.31;84.90
67275;DHT22;55463;52.324;5.122;2023-04-30T06:40:55;12.77;86.35
67275;DHT22;55463;52.324;5.122;2023-04-30T06:43:20;12.77;83.57
67275;DHT22;55463;52.324;5.122;2023-04-30T06:45:46;13.04;83.48
67275;DHT22;55463;52.324;5.122;2023-04-30T06:48:11;13.42;82.75
67275;DHT22;55463;52.324;5.122;2023-04-30T06:50:37;13.55;82.11
67275;DHT22;55463;52.324;5.122;2023-04-30T06:53:12;13.80;81.27
67275;DHT22;55463;52.324;5.122;2023-04-30T06:55:38;13.87;78.03
67275;DHT22;55463;52.324;5.122;2023-04-30T06:58:03;14.20;77.72
67275;DHT22;55463;52.324;5.122;2023-04-30T07:00:30;14.29;77.06
67275;DHT22;55463;52.324;5.122;2023-04-30T07:02:56;14.55;77.18
67275;DHT22;55463;52.324;5.122;2023-04-30T07:05:25;14.24;75.75
67275;DHT22;55463;52.324;5.122;2023-04-30T07:07:50;14.94;76.00
67275;DHT22;55463;52.324;5.122;2023-04-30T07:10:15;15.21;74.63
67275;DHT22;55463;52.324;5.122;2023-04-30T07:12:41;15.24;72.55
67275;DHT22;55463;52.324;5.122;2023-04-30T07:15:07;15.31;74.12
67275;DHT22;55463;52.324;5.122;2023-04-30T07:17:32;15.43;72.37
67275;DHT22;55463;52.324;5.122;2023-04-30T07:19:57;15.90;72.99
67275;DHT22;55463;52.324;5.122;2023-04-30T07:22:23;15.89;71.45
67275;DHT22;55463;52.324;5.122;2023-04-30T07:24:48;15.97;71.75
67275;DHT22;55463;52.324;5.122;2023-04-30T07:27:13;16.17;70.40
67275;DHT22;55463;52.324;5.122;2023-04-30T07:29:39;16.22;70.35
67275;DHT22;55463;52.324;5.122;2023-04-30T07:32:04;16.00;69.56
67275;DHT22;55463;52.324;5.122;2023-04-30T07:34:30;16.11;69.62
67275;DHT22;55463;52.324;5.122;2023-04-30T07:36:55;16.57;70.69
67275;DHT22;55463;52.324;5.122;2023-04-30T07:39:20;16.70;69.21
67275;DHT22;55463;52.324;5.122;2023-04-30T07:41:46;17.18;68.35
67275;DHT22;55463;52.324;5.122;2023-04-30T07:44:11;17.59;67.40
67275;DHT22;55463;52.324;5.122;2023-04-30T07:46:36;17.55;65.69
67275;DHT22;55463;52.324;5.122;2023-04-30T07:49:02;17.83;66.30
67275;DHT22;55463;52.324;5.122;2023-04-30T07:51:28;17.50;64.24
67275;DHT22;55463;52.324;5.122;2023-04-30T07:53:54;17.39;65.33
67275;DHT22;55463;52.324;5.122;2023-04-30T07:56:19;17.63;66.06
67275;DHT22;55463;52.324;5.122;2023-04-30T07:58:46;18.02;64.39
67275;DHT22;55463;52.324;5.122;2023-04-30T08:01:11;18.15;64.46
67275;DHT22;55463;52.324;5.122;2023-04-30T08:03:36;18.25;64.01
67275;DHT22;55463;52.324;5.122;2023-04-30T08:06:02;18.31;63.00
67275;DHT22;55463;52.324;5.122;2023-04-30T08:08:28;18.08;61.81
67275;DHT22;55463;52.324;5.122;2023-04-30T08:10:53;18.66;61.08
67275;DHT22;55463;52.324;5.122;2023-04-30T08:13:18;18.55;61.33
67275;DHT22;55463;52.324;5.122;2023-04-30T08:15:44;19.04;61.63
67275;DHT22;55463;52.324;5.122;2023-04-30T08:18:10;19.01;61.52
67275;DHT22;55463;52.324;5.122;2023-04-30T08:20:35;19.28;60.45
67275;DHT22;55463;52.324;5.122;2023-04-30T08:23:01;19.25;57.79
67275;DHT22;55463;52.324;5.122;2023-04-30T08:25:26;19.58;58.88
67275;DHT22;55463;52.324;5.122;2023-04-30T08:27:52;19.53;58.58
67275;DHT22;55463;52.324;5.122;2023-04-30T08:30:17;20.04;59.10
67275;DHT22;55463;52.324;5.122;2023-04-30T08:32:43;19.80;56.26
67275;DHT22;55463;52.324;5.122;2023-04-30T08:35:08;19.74;57.33
67275;DHT22;55463;52.324;5.122;2023-04-30T08:37:34;20.31;57.05
67275;DHT22;55463;52.324;5.122;2023-04-30T08:39:59;20.13;56.78
67275;DHT22;55463;52.324;5.122;2023-04-30T08:42:35;19.81;55.80
67275;DHT22;55463;52.324;5.122;2023-04-30T08:45:02;20.43;55.54
67275;DHT22;55463;52.324;5.122;2023-04-30T08:47:28;20.98;54.12
67275;DHT22;55463;52.324;5.122;2023-04-30T08:49:53;21.31;54.38
67275;DHT22;55463;52.324;5.122;2023-04-30T08:52:19;21.21;53.17
67275;DHT22;55463;52.324;5.122;2023-04-30T08:54:46;20.83;51.51
67275;DHT22;55463;52.324;5.122;2023-04-30T08:57:12;21.08;51.56
67275;DHT22;55463;52.324;5.122;2023-04-30T08:59:38;21.01;50.55
67275;DHT22;55463;52.324;5.122;2023-04-30T09:02:04;21.18;52.86
67275;DHT22;55463;52.324;5.122;2023-04-30T09:04:29;21.38;51.98
67275;DHT22;55463;52.324;5.122;2023-04-30T09:06:55;21.82;51.62
67275;DHT22;55463;52.324;5.122;2023-04-30T09:09:37;21.77;50.07
67275;DHT22;55463;52.324;5.122;2023-04-30T09:12:23;21.32;52.69
67275;DHT22;55463;52.324;5.122;2023-04-30T09:15:03;21.85;51.60
67275;DHT22;55463;52.324;5.122;2023-04-30T09:17:29;22.24;50.87
67275;DHT22;55463;52.324;5.122;2023-04-30T09:20:08;22.66;50.33
67275;DHT22;55463;52.324;5.122;2023-04-30T09:22:35;22.44;49.93
67275;DHT22;55463;52.324;5.122;2023-04-30T09:25:01;23.25;49.36
67275;DHT22;55463;52.324;5.122;2023-04-30T09:27:27;23.12;48.79
67275;DHT22;55463;52.324;5.122;2023-04-30T09:29:52;23.48;50.65
67275;DHT22;55463;52.324;5.122;2023-04-30T09:32:17;24.06;49.83
67275;DHT22;55463;52.324;5.122;2023-04-30T09:34:43;23.89;48.65
67275;DHT22;55463;52.324;5.122;2023-04-30T09:37:09;23.69;47.71
67275;DHT22;55463;52.324;5.122;2023-04-30T09:39:52;24.06;46.50
67275;DHT22;55463;52.324;5.122;2023-04-30T09:42:21;24.03;48.25
67275;DHT22;55463;52.324;5.122;2023-04-30T09:44:46;23.99;47.41
67275;DHT22;55463;52.324;5.122;2023-04-30T09:47:19;24.20;48.38
67275;DHT22;55463;52.324;5.122;2023-04-30T09:49:49;24.59;47.78
67275;DHT22;55463;52.324;5.122;2023-04-30T09:52:17;23.84;46.88
67275;DHT22;55463;52.324;5.122;2023-04-30T09:54:43;23.94;47.30
67275;DHT22;55463;52.324;5.122;2023-04-30T09:57:10;23.96;49.02
67275;DHT22;55463;52.324;5.122;2023-04-30T09:59:37;24.14;47.80
67275;DHT22;55463;52.324;5.122;2023-04-30T10:02:05;24.55;47.05
67275;DHT22;55463;52.324;5.122;2023-04-30T10:04:36;24.56;46.22
67275;DHT22;55463;52.324;5.122;2023-04-30T10:07:05;24.20;45.51
67275;DHT22;55463;52.324;5.122;2023-04-30T10:09:39;24.47;47.57
67275;DHT22;55463;52.324;5.122;2023-04-30T10:12:10;24.76;46.05
67275;DHT22;55463;52.324;5.122;2023-04-30T10:14:38;25.23;47.12
67275;DHT22;55463;52.324;5.122;2023-04-30T10:17:12;25.07;45.88
67275;DHT22;55463;52.324;5.122;2023-04-30T10:19:39;25.17;48.03
67275;DHT22;55463;52.324;5.122;2023-04-30T10:22:08;25.58;46.20
67275;DHT22;55463;52.324;5.122;2023-04-30T10:24:33;24.93;44.41
67275;DHT22;55463;52.324;5.122;2023-04-30T10:26:59;24.03;45.96
67275;DHT22;55463;52.324;5.122;2023-04-30T10:29:27;24.90;46.62
67275;DHT22;55463;52.324;5.122;2023-04-30T10:31:53;25.04;47.45
67275;DHT22;55463;52.324;5.122;2023-04-30T10:35:25;25.31;48.67
67275;DHT22;55463;52.324;5.122;2023-04-30T10:37:37;25.33;46.38
67275;DHT22;55463;52.324;5.122;2023-04-30T10:40:04;25.48;47.10
67275;DHT22;55463;52.324;5.122;2023-04-30T10:42:33;25.23;44.98
67275;DHT22;55463;52.324;5.122;2023-04-30T10:45:01;25.44;46.92
67275;DHT22;55463;52.324;5.122;2023-04-30T10:47:28;25.38;45.21
67275;DHT22;55463;52.324;5.122;2023-04-30T10:50:07;25.41;47.05
67275;DHT22;55463;52.324;5.122;2023-04-30T10:52:32;25.80;45.64
67275;DHT22;55463;52.324;5.122;2023-04-30T10:54:58;25.35;46.03
67275;DHT22;55463;52.324;5.122;2023-04-30T10:57:28;25.89;46.31
67275;DHT22;55463;52.324;5.122;2023-04-30T11:02:44;26.34;45.79
67275;DHT22;55463;52.324;5.122;2023-04-30T11:05:13;25.38;44.74
67275;DHT22;55463;52.324;5.122;2023-04-30T11:08:04;25.63;43.55
67275;DHT22;55463;52.324;5.122;2023-04-30T11:10:34;25.86;45.55
67275;DHT22;55463;52.324;5.122;2023-04-30T11:13:05;26.06;44.44
67275;DHT22;55463;52.324;5.122;2023-04-30T11:15:41;26.18;46.51
67275;DHT22;55463;52.324;5.122;2023-04-30T11:18:09;26.18;47.46
67275;DHT22;55463;52.324;5.122;2023-04-30T11:20:39;26.00;46.34
67275;DHT22;55463;52.324;5.122;2023-04-30T11:25:42;26.21;48.49
67275;DHT22;55463;52.324;5.122;2023-04-30T11:28:20;25.46;46.18
67275;DHT22;55463;52.324;5.122;2023-04-30T11:31:03;25.03;49.14
67275;DHT22;55463;52.324;5.122;2023-04-30T11:33:30;25.18;48.94
67275;DHT22;55463;52.324;5.122;2023-04-30T11:35:57;25.51;48.81
67275;DHT22;55463;52.324;5.122;2023-04-30T11:38:33;25.37;48.54
67275;DHT22;55463;52.324;5.122;2023-04-30T11:41:00;25.37;49.60
67275;DHT22;55463;52.324;5.122;2023-04-30T11:43:31;25.23;49.21
67275;DHT22;55463;52.324;5.122;2023-04-30T11:46:09;24.82;49.48
67275;DHT22;55463;52.324;5.122;2023-04-30T11:48:44;24.41;49.28
67275;DHT22;55463;52.324;5.122;2023-04-30T11:51:13;24.10;50.06
67275;DHT22;55463;52.324;5.122;2023-04-30T11:53:39;24.66;52.15
67275;DHT22;55463;52.324;5.122;2023-04-30T11:56:05;24.13;51.35
67275;DHT22;55463;52.324;5.122;2023-04-30T11:58:34;24.14;51.76
67275;DHT22;55463;52.324;5.122;2023-04-30T12:01:02;24.47;51.85
67275;DHT22;55463;52.324;5.122;2023-04-30T12:03:28;24.31;51.36
67275;DHT22;55463;52.324;5.122;2023-04-30T12:05:53;24.54;51.54
67275;DHT22;55463;52.324;5.122;2023-04-30T12:08:19;24.11;51.58
67275;DHT22;55463;52.324;5.122;2023-04-30T12:10:44;23.62;51.22
67275;DHT22;55463;52.324;5.122;2023-04-30T12:13:13;23.22;52.55
67275;DHT22;55463;52.324;5.122;2023-04-30T12:15:38;23.11;54.48
67275;DHT22;55463;52.324;5.122;2023-04-30T12:18:13;23.08;53.03
67275;DHT22;55463;52.324;5.122;2023-04-30T12:20:40;23.42;53.30
67275;DHT22;55463;52.324;5.122;2023-04-30T12:23:06;23.52;53.21
67275;DHT22;55463;52.324;5.122;2023-04-30T12:25:42;23.83;52.79
67275;DHT22;55463;52.324;5.122;2023-04-30T12:28:08;23.70;51.77
67275;DHT22;55463;52.324;5.122;2023-04-30T12:30:34;23.89;51.92
67275;DHT22;55463;52.324;5.122;2023-04-30T12:33:00;23.73;52.19
67275;DHT22;55463;52.324;5.122;2023-04-30T12:35:28;23.63;52.81
67275;DHT22;55463;52.324;5.122;2023-04-30T12:38:04;24.06;53.57
67275;DHT22;55463;52.324;5.122;2023-04-30T12:40:30;24.47;53.26
67275;DHT22;55463;52.324;5.122;2023-04-30T12:43:03;24.54;51.46
67275;DHT22;55463;52.324;5.122;2023-04-30T12:45:50;23.94;51.75
67275;DHT22;55463;52.324;5.122;2023-04-30T12:48:17;23.39;53.38
67275;DHT22;55463;52.324;5.122;2023-04-30T12:50:49;23.52;51.51
67275;DHT22;55463;52.324;5.122;2023-04-30T12:53:15;23.03;52.89
67275;DHT22;55463;52.324;5.122;2023-04-30T12:55:40;23.24;53.90
67275;DHT22;55463;52.324;5.122;2023-04-30T12:58:08;23.59;54.17
67275;DHT22;55463;52.324;5.122;2023-04-30T13:00:50;23.67;53.27
67275;DHT22;55463;52.324;5.122;2023-04-30T13:03:20;23.82;53.87
67275;DHT22;55463;52.324;5.122;2023-04-30T13:05:51;24.07;52.72
67275;DHT22;55463;52.324;5.122;2023-04-30T13:08:18;24.45;53.77
67275;DHT22;55463;52.324;5.122;2023-04-30T13:10:45;24.42;51.84
67275;DHT22;55463;52.324;5.122;2023-04-30T13:13:12;24.27;52.24
67275;DHT22;55463;52.324;5.122;2023-04-30T13:15:37;24.27;52.75
67275;DHT22;55463;52.324;5.122;2023-04-30T13:18:03;24.01;51.79
67275;DHT22;55463;52.324;5.122;2023-04-30T13:20:28;24.21;52.68
67275;DHT22;55463;52.324;5.122;2023-04-30T13:22:54;23.58;51.62
67275;DHT22;55463;52.324;5.122;2023-04-30T13:25:19;23.58;52.79
67275;DHT22;55463;52.324;5.122;2023-04-30T13:27:46;23.72;53.86
67275;DHT22;55463;52.324;5.122;2023-04-30T13:30:11;23.84;52.82
67275;DHT22;55463;52.324;5.122;2023-04-30T13:32:36;23.77;52.94
67275;DHT22;55463;52.324;5.122;2023-04-30T13:35:02;23.42;53.16
67275;DHT22;55463;52.324;5.122;2023-04-30T13:37:28;23.73;54.08
67275;DHT22;55463;52.324;5.122;2023-04-30T13:39:56;23.79;53.96
67275;DHT22;55463;52.324;5.122;2023-04-30T13:42:24;23.93;55.28
67275;DHT22;55463;52.324;5.122;2023-04-30T13:44:49;24.07;53.89
67275;DHT22;55463;52.324;5.122;2023-04-30T13:47:15;23.28;53.93
67275;DHT22;55463;52.324;5.122;2023-04-30T13:49:40;23.76;55.25
67275;DHT22;55463;52.324;5.122;2023-04-30T13:52:06;23.99;55.36
67275;DHT22;55463;52.324;5.122;2023-04-30T13:54:31;24.24;56.02
67275;DHT22;55463;52.324;5.122;2023-04-30T13:56:57;24.29;55.12
67275;DHT22;55463;52.324;5.122;2023-04-30T13:59:24;24.16;54.11
67275;DHT22;55463;52.324;5.122;2023-04-30T14:01:49;24.03;53.59
67275;DHT22;55463;52.324;5.122;2023-04-30T14:04:14;24.38;55.20
67275;DHT22;55463;52.324;5.122;2023-04-30T14:06:40;23.63;53.11
67275;DHT22;55463;52.324;5.122;2023-04-30T14:09:06;23.76;55.37
67275;DHT22;55463;52.324;5.122;2023-04-30T14:11:31;24.04;54.31
67275;DHT22;55463;52.324;5.122;2023-04-30T14:13:57;23.82;53.19
67275;DHT22;55463;52.324;5.122;2023-04-30T14:16:22;23.73;54.27
67275;DHT22;55463;52.324;5.122;2023-04-30T14:18:48;23.84;54.36
67275;DHT22;55463;52.324;5.122;2023-04-30T14:21:14;23.73;54.93
67275;DHT22;55463;52.324;5.122;2023-04-30T14:23:39;23.41;53.91
67275;DHT22;55463;52.324;5.122;2023-04-30T14:26:05;23.34;54.98
67275;DHT22;55463;52.324;5.122;2023-04-30T14:28:31;23.49;56.11
67275;DHT22;55463;52.324;5.122;2023-04-30T14:30:56;23.51;54.91
67275;DHT22;55463;52.324;5.122;2023-04-30T14:33:22;23.35;54.53
67275;DHT22;55463;52.324;5.122;2023-04-30T14:35:47;23.67;57.26
67275;DHT22;55463;52.324;5.122;2023-04-30T14:38:13;23.63;55.54
67275;DHT22;55463;52.324;5.122;2023-04-30T14:40:39;24.01;53.60
67275;DHT22;55463;52.324;5.122;2023-04-30T14:43:05;23.80;52.55
67275;DHT22;55463;52.324;5.122;2023-04-30T14:45:32;23.73;54.08
67275;DHT22;55463;52.324;5.122;2023-04-30T14:47:57;23.77;54.60
67275;DHT22;55463;52.324;5.122;2023-04-30T14:50:23;23.51;53.77
67275;DHT22;55463;52.324;5.122;2023-04-30T14:52:49;23.44;54.83
67275;DHT22;55463;52.324;5.122;2023-04-30T14:55:14;23.49;56.03
67275;DHT22;55463;52.324;5.122;2023-04-30T14:57:39;23.31;54.64
67275;DHT22;55463;52.324;5.122;2023-04-30T15:00:05;23.28;55.84
67275;DHT22;55463;52.324;5.122;2023-04-30T15:02:31;23.32;56.48
67275;DHT22;55463;52.324;5.122;2023-04-30T15:04:56;22.82;56.80
67275;DHT22;55463;52.324;5.122;2023-04-30T15:07:22;22.89;58.07
67275;DHT22;55463;52.324;5.122;2023-04-30T15:09:47;22.60;57.63
67275;DHT22;55463;52.324;5.122;2023-04-30T15:12:12;22.48;57.56
67275;DHT22;55463;52.324;5.122;2023-04-30T15:14:38;22.51;57.73
67275;DHT22;55463;52.324;5.122;2023-04-30T15:17:03;22.41;57.64
67275;DHT22;55463;52.324;5.122;2023-04-30T15:19:29;22.53;57.44
67275;DHT22;55463;52.324;5.122;2023-04-30T15:21:54;22.27;57.43
67275;DHT22;55463;52.324;5.122;2023-04-30T15:24:20;22.24;58.65
67275;DHT22;55463;52.324;5.122;2023-04-30T15:26:45;22.41;59.00
67275;DHT22;55463;52.324;5.122;2023-04-30T15:29:10;22.18;59.35
67275;DHT22;55463;52.324;5.122;2023-04-30T15:31:36;22.39;58.32
67275;DHT22;55463;52.324;5.122;2023-04-30T15:34:01;22.47;58.92
67275;DHT22;55463;52.324;5.122;2023-04-30T15:36:27;22.18;59.07
67275;DHT22;55463;52.324;5.122;2023-04-30T15:38:52;21.97;59.13
67275;DHT22;55463;52.324;5.122;2023-04-30T15:41:17;21.60;59.40
67275;DHT22;55463;52.324;5.122;2023-04-30T15:43:43;21.55;59.53
67275;DHT22;55463;52.324;5.122;2023-04-30T15:46:08;21.38;59.66
67275;DHT22;55463;52.324;5.122;2023-04-30T15:48:33;21.55;61.32
67275;DHT22;55463;52.324;5.122;2023-04-30T15:50:59;21.42;60.29
67275;DHT22;55463;52.324;5.122;2023-04-30T15:53:25;21.43;61.21
67275;DHT22;55463;52.324;5.122;2023-04-30T15:55:50;21.55;61.65
67275;DHT22;55463;52.324;5.122;2023-04-30T15:58:16;21.32;61.22